sensor_id;sensor_type;location;lat;lon;timestamp;temperature;humidity
11538;DHT22;50159;49.426;11.182;2022-11-04T00:00:14;9.50;99.90
11538;DHT22;50159;49.426;11.182;2022-11-04T00:02:41;9.60;99.90
11538;DHT22;50159;49.426;11.182;2022-11-04T00:05:08;9.60;99.90
11538;DHT22;50159;49.426;11.182;2022-11-04T00:07:35;9.60;99.90
11538;DHT22;50159;49.426;11.182;2022-11-04T00:10:20;9.60;99.90
11538;DHT22;50159;49.426;11.182;2022-11-04T00:13:06;9.60;99.90
11538;DHT22;50159;49.426;11.182;2022-11-04T00:15:37;9.60;99.90
11538;DHT22;50159;49.426;11.182;2022-11-04T00:18:35;9.50;99.90
11538;DHT22;50159;49.426;11.182;2022-11-04T00:21:01;9.60;99.90
11538;DHT22;50159;49.426;11.182;2022-11-04T00:23:47;9.60;99.90
11538;DHT22;50159;49.426;11.182;2022-11-04T00:26:32;9.50;99.90
11538;DHT22;50159;49.426;11.182;2022-11-04T00:29:17;9.50;99.90
11538;DHT22;50159;49.426;11.182;2022-11-04T00:31:44;9.60;99.90
11538;DHT22;50159;49.426;11.182;2022-11-04T00:34:29;9.60;99.90
11538;DHT22;50159;49.426;11.182;2022-11-04T00:36:56;9.50;99.90
11538;DHT22;50159;49.426;11.182;2022-11-04T00:39:22;9.50;99.90
11538;DHT22;50159;49.426;11.182;2022-11-04T00:41:49;9.60;99.90
11538;DHT22;50159;49.426;11.182;2022-11-04T00:44:16;9.50;99.90
11538;DHT22;50159;49.426;11.182;2022-11-04T00:46:43;9.60;99.90
11538;DHT22;50159;49.426;11.182;2022-11-04T00:49:09;9.60;99.90
11538;DHT22;50159;49.426;11.182;2022-11-04T00:51:36;9.60;99.90
11538;DHT22;50159;49.426;11.182;2022-11-04T00:54:03;9.60;99.90
11538;DHT22;50159;49.426;11.182;2022-11-04T00:56:30;9.60;99.90
11538;DHT22;50159;49.426;11.182;2022-11-04T00:59:00;9.60;99.90
11538;DHT22;50159;49.426;11.182;2022-11-04T01:01:27;9.70;99.90
11538;DHT22;50159;49.426;11.182;2022-11-04T01:03:55;9.70;99.90
11538;DHT22;50159;49.426;11.182;2022-11-04T01:06:23;9.70;99.90
11538;DHT22;50159;49.426;11.182;2022-11-04T01:08:56;9.70;99.90
11538;DHT22;50159;49.426;11.182;2022-11-04T01:11:25;9.70;99.90
11538;DHT22;50159;49.426;11.182;2022-11-04T01:13:54;9.70;99.90
11538;DHT22;50159;49.426;11.182;2022-11-04T01:16:22;9.70;99.90
11538;DHT22;50159;49.426;11.182;2022-11-04T01:18:49;9.70;99.90
11538;DHT22;50159;49.426;11.182;2022-11-04T01:21:16;9.80;99.90
11538;DHT22;50159;49.426;11.182;2022-11-04T01:23:44;9.70;99.90
11538;DHT22;50159;49.426;11.182;2022-11-04T01:26:14;9.70;99.90
11538;DHT22;50159;49.426;11.182;2022-11-04T01:28:45;9.70;99.90
11538;DHT22;50159;49.426;11.182;2022-11-04T01:31:17;9.70;99.90
11538;DHT22;50159;49.426;11.182;2022-11-04T01:33:48;9.70;99.90
11538;DHT22;50159;49.426;11.182;2022-11-04T01:36:16;9.70;99.90
11538;DHT22;50159;49.426;11.182;2022-11-04T01:38:44;9.70;99.90
11538;DHT22;50159;49.426;11.182;2022-11-04T01:41:20;9.70;99.90
11538;DHT22;50159;49.426;11.182;2022-11-04T01:46:41;9.70;99.90
11538;DHT22;50159;49.426;11.182;2022-11-04T01:49:32;9.70;99.90
11538;DHT22;50159;49.426;11.182;2022-11-04T01:52:16;9.70;99.90
11538;DHT22;50159;49.426;11.182;2022-11-04T01:54:49;9.70;99.90
11538;DHT22;50159;49.426;11.182;2022-11-04T01:57:22;9.70;99.90
11538;DHT22;50159;49.426;11.182;2022-11-04T01:59:57;9.70;99.90
11538;DHT22;50159;49.426;11.182;2022-11-04T02:02:28;9.80;99.90
11538;DHT22;50159;49.426;11.182;2022-11-04T02:04:55;9.80;99.90
11538;DHT22;50159;49.426;11.182;2022-11-04T02:07:22;9.70;99.90
11538;DHT22;50159;49.426;11.182;2022-11-04T02:09:49;9.70;99.90
11538;DHT22;50159;49.426;11.182;2022-11-04T02:12:16;9.70;99.90
11538;DHT22;50159;49.426;11.182;2022-11-04T02:15:02;9.70;99.90
11538;DHT22;50159;49.426;11.182;2022-11-04T02:20:41;9.70;99.90
11538;DHT22;50159;49.426;11.182;2022-11-04T02:24:03;9.70;99.90
11538;DHT22;50159;49.426;11.182;2022-11-04T02:30:14;9.70;99.90
11538;DHT22;50159;49.426;11.182;2022-11-04T02:35:49;9.70;99.90
11538;DHT22;50159;49.426;11.182;2022-11-04T02:38:46;9.70;99.90
11538;DHT22;50159;49.426;11.182;2022-11-04T02:41:56;9.70;99.90
11538;DHT22;50159;49.426;11.182;2022-11-04T02:44:36;9.70;99.90
11538;DHT22;50159;49.426;11.182;2022-11-04T02:47:19;9.80;99.90
11538;DHT22;50159;49.426;11.182;2022-11-04T02:49:54;9.80;99.90
11538;DHT22;50159;49.426;11.182;2022-11-04T02:52:35;9.80;99.90
11538;DHT22;50159;49.426;11.182;2022-11-04T02:55:31;9.80;99.90
11538;DHT22;50159;49.426;11.182;2022-11-04T02:58:08;9.80;99.90
11538;DHT22;50159;49.426;11.182;2022-11-04T03:00:41;9.80;99.90
11538;DHT22;50159;49.426;11.182;2022-11-04T03:03:20;9.80;99.90
11538;DHT22;50159;49.426;11.182;2022-11-04T03:05:52;9.80;99.90
11538;DHT22;50159;49.426;11.182;2022-11-04T03:08:36;9.80;99.90
11538;DHT22;50159;49.426;11.182;2022-11-04T03:11:27;9.80;99.90
11538;DHT22;50159;49.426;11.182;2022-11-04T03:14:09;9.80;99.90
11538;DHT22;50159;49.426;11.182;2022-11-04T03:16:53;9.80;99.90
11538;DHT22;50159;49.426;11.182;2022-11-04T03:19:45;9.70;99.90
11538;DHT22;50159;49.426;11.182;2022-11-04T03:22:20;9.70;99.90
11538;DHT22;50159;49.426;11.182;2022-11-04T03:24:49;9.70;99.90
11538;DHT22;50159;49.426;11.182;2022-11-04T03:30:32;9.70;99.90
11538;DHT22;50159;49.426;11.182;2022-11-04T03:33:18;9.70;99.90
11538;DHT22;50159;49.426;11.182;2022-11-04T03:35:47;9.70;99.90
11538;DHT22;50159;49.426;11.182;2022-11-04T03:38:14;9.70;99.90
11538;DHT22;50159;49.426;11.182;2022-11-04T03:40:41;9.70;99.90
11538;DHT22;50159;49.426;11.182;2022-11-04T03:43:21;9.70;99.90
11538;DHT22;50159;49.426;11.182;2022-11-04T03:45:51;9.70;99.90
11538;DHT22;50159;49.426;11.182;2022-11-04T03:48:19;9.70;99.90
11538;DHT22;50159;49.426;11.182;2022-11-04T03:50:48;9.70;99.90
11538;DHT22;50159;49.426;11.182;2022-11-04T03:53:19;9.70;99.90
11538;DHT22;50159;49.426;11.182;2022-11-04T03:56:19;9.70;99.90
11538;DHT22;50159;49.426;11.182;2022-11-04T04:01:58;9.70;99.90
11538;DHT22;50159;49.426;11.182;2022-11-04T04:04:43;9.70;99.90
11538;DHT22;50159;49.426;11.182;2022-11-04T04:07:31;9.70;99.90
11538;DHT22;50159;49.426;11.182;2022-11-04T04:10:25;9.70;99.90
11538;DHT22;50159;49.426;11.182;2022-11-04T04:18:44;9.70;99.90
11538;DHT22;50159;49.426;11.182;2022-11-04T04:24:23;9.60;99.90
11538;DHT22;50159;49.426;11.182;2022-11-04T04:27:15;9.50;99.90
11538;DHT22;50159;49.426;11.182;2022-11-04T04:30:11;9.50;99.90
11538;DHT22;50159;49.426;11.182;2022-11-04T04:32:45;9.50;99.90
11538;DHT22;50159;49.426;11.182;2022-11-04T04:35:16;9.50;99.90
11538;DHT22;50159;49.426;11.182;2022-11-04T04:38:04;9.50;99.90
11538;DHT22;50159;49.426;11.182;2022-11-04T04:41:05;9.50;99.90
11538;DHT22;50159;49.426;11.182;2022-11-04T04:43:57;9.40;99.90
11538;DHT22;50159;49.426;11.182;2022-11-04T04:46:44;9.40;99.90
11538;DHT22;50159;49.426;11.182;2022-11-04T04:49:14;9.40;99.90
11538;DHT22;50159;49.426;11.182;2022-11-04T04:51:43;9.40;99.90
11538;DHT22;50159;49.426;11.182;2022-11-04T04:54:13;9.40;99.90
11538;DHT22;50159;49.426;11.182;2022-11-04T04:56:40;9.30;99.90
11538;DHT22;50159;49.426;11.182;2022-11-04T04:59:07;9.40;99.90
11538;DHT22;50159;49.426;11.182;2022-11-04T05:01:34;9.30;99.90
11538;DHT22;50159;49.426;11.182;2022-11-04T05:04:00;9.30;99.90
11538;DHT22;50159;49.426;11.182;2022-11-04T05:06:27;9.30;99.90
11538;DHT22;50159;49.426;11.182;2022-11-04T05:08:54;9.30;99.90
11538;DHT22;50159;49.426;11.182;2022-11-04T05:11:21;9.30;99.90
11538;DHT22;50159;49.426;11.182;2022-11-04T05:13:52;9.20;99.90
11538;DHT22;50159;49.426;11.182;2022-11-04T05:16:20;9.30;99.90
11538;DHT22;50159;49.426;11.182;2022-11-04T05:18:47;9.20;99.90
11538;DHT22;50159;49.426;11.182;2022-11-04T05:21:14;9.20;99.90
11538;DHT22;50159;49.426;11.182;2022-11-04T05:23:41;9.20;99.90
11538;DHT22;50159;49.426;11.182;2022-11-04T05:26:08;9.20;99.90
11538;DHT22;50159;49.426;11.182;2022-11-04T05:28:35;9.20;99.90
11538;DHT22;50159;49.426;11.182;2022-11-04T05:31:05;9.20;99.90
11538;DHT22;50159;49.426;11.182;2022-11-04T05:33:33;9.20;99.90
11538;DHT22;50159;49.426;11.182;2022-11-04T05:36:08;9.20;99.90
11538;DHT22;50159;49.426;11.182;2022-11-04T05:38:38;9.20;99.90
11538;DHT22;50159;49.426;11.182;2022-11-04T05:41:07;9.20;99.90
11538;DHT22;50159;49.426;11.182;2022-11-04T05:43:35;9.20;99.90
11538;DHT22;50159;49.426;11.182;2022-11-04T05:46:02;9.20;99.90
11538;DHT22;50159;49.426;11.182;2022-11-04T05:48:29;9.10;99.90
11538;DHT22;50159;49.426;11.182;2022-11-04T05:50:56;9.10;99.90
11538;DHT22;50159;49.426;11.182;2022-11-04T05:53:22;9.10;99.90
11538;DHT22;50159;49.426;11.182;2022-11-04T05:55:49;9.10;99.90
11538;DHT22;50159;49.426;11.182;2022-11-04T05:58:16;9.20;99.90
11538;DHT22;50159;49.426;11.182;2022-11-04T06:00:43;9.20;99.90
11538;DHT22;50159;49.426;11.182;2022-11-04T06:03:10;9.20;99.90
11538;DHT22;50159;49.426;11.182;2022-11-04T06:05:41;9.20;99.90
11538;DHT22;50159;49.426;11.182;2022-11-04T06:08:08;9.20;99.90
11538;DHT22;50159;49.426;11.182;2022-11-04T06:10:35;9.20;99.90
11538;DHT22;50159;49.426;11.182;2022-11-04T06:13:02;9.20;99.90
11538;DHT22;50159;49.426;11.182;2022-11-04T06:15:29;9.10;99.90
11538;DHT22;50159;49.426;11.182;2022-11-04T06:17:56;9.20;99.90
11538;DHT22;50159;49.426;11.182;2022-11-04T06:20:22;9.20;99.90
11538;DHT22;50159;49.426;11.182;2022-11-04T06:22:49;9.20;99.90
11538;DHT22;50159;49.426;11.182;2022-11-04T06:25:16;9.20;99.90
11538;DHT22;50159;49.426;11.182;2022-11-04T06:27:43;9.20;99.90
11538;DHT22;50159;49.426;11.182;2022-11-04T06:30:10;9.20;99.90
11538;DHT22;50159;49.426;11.182;2022-11-04T06:32:37;9.20;99.90
11538;DHT22;50159;49.426;11.182;2022-11-04T06:35:04;9.20;99.90
11538;DHT22;50159;49.426;11.182;2022-11-04T06:37:33;9.20;99.90
11538;DHT22;50159;49.426;11.182;2022-11-04T06:40:00;9.20;99.90
11538;DHT22;50159;49.426;11.182;2022-11-04T06:42:27;9.20;99.90
11538;DHT22;50159;49.426;11.182;2022-11-04T06:44:53;9.20;99.90
11538;DHT22;50159;49.426;11.182;2022-11-04T06:47:20;9.20;99.90
11538;DHT22;50159;49.426;11.182;2022-11-04T06:49:50;9.30;99.90
11538;DHT22;50159;49.426;11.182;2022-11-04T06:52:17;9.30;99.90
11538;DHT22;50159;49.426;11.182;2022-11-04T06:54:44;9.30;99.90
11538;DHT22;50159;49.426;11.182;2022-11-04T06:57:12;9.30;99.90
11538;DHT22;50159;49.426;11.182;2022-11-04T06:59:39;9.30;99.90
11538;DHT22;50159;49.426;11.182;2022-11-04T07:02:08;9.30;99.90
11538;DHT22;50159;49.426;11.182;2022-11-04T07:04:36;9.40;99.90
11538;DHT22;50159;49.426;11.182;2022-11-04T07:07:03;9.40;99.90
11538;DHT22;50159;49.426;11.182;2022-11-04T07:09:30;9.40;99.90
11538;DHT22;50159;49.426;11.182;2022-11-04T07:11:56;9.50;99.90
11538;DHT22;50159;49.426;11.182;2022-11-04T07:14:23;9.40;99.90
11538;DHT22;50159;49.426;11.182;2022-11-04T07:16:50;9.50;99.90
11538;DHT22;50159;49.426;11.182;2022-11-04T07:19:17;9.50;99.90
11538;DHT22;50159;49.426;11.182;2022-11-04T07:21:44;9.50;99.90
11538;DHT22;50159;49.426;11.182;2022-11-04T07:24:11;9.50;99.90
11538;DHT22;50159;49.426;11.182;2022-11-04T07:26:38;9.50;99.90
11538;DHT22;50159;49.426;11.182;2022-11-04T07:29:05;9.40;99.90
11538;DHT22;50159;49.426;11.182;2022-11-04T07:31:32;9.40;99.90
11538;DHT22;50159;49.426;11.182;2022-11-04T07:33:59;9.50;99.90
11538;DHT22;50159;49.426;11.182;2022-11-04T07:36:25;9.40;99.90
11538;DHT22;50159;49.426;11.182;2022-11-04T07:38:53;9.30;99.90
11538;DHT22;50159;49.426;11.182;2022-11-04T07:41:20;9.20;99.90
11538;DHT22;50159;49.426;11.182;2022-11-04T07:43:51;9.20;99.90
11538;DHT22;50159;49.426;11.182;2022-11-04T07:46:20;9.10;99.90
11538;DHT22;50159;49.426;11.182;2022-11-04T07:48:47;9.10;99.90
11538;DHT22;50159;49.426;11.182;2022-11-04T07:51:17;9.10;99.90
11538;DHT22;50159;49.426;11.182;2022-11-04T07:53:45;9.10;99.90
11538;DHT22;50159;49.426;11.182;2022-11-04T07:56:12;9.10;99.90
11538;DHT22;50159;49.426;11.182;2022-11-04T07:58:40;9.10;99.90
11538;DHT22;50159;49.426;11.182;2022-11-04T08:01:10;9.20;99.90
11538;DHT22;50159;49.426;11.182;2022-11-04T08:03:39;9.20;99.90
11538;DHT22;50159;49.426;11.182;2022-11-04T08:06:08;9.20;99.90
11538;DHT22;50159;49.426;11.182;2022-11-04T08:08:36;9.30;99.90
11538;DHT22;50159;49.426;11.182;2022-11-04T08:11:09;9.30;99.90
11538;DHT22;50159;49.426;11.182;2022-11-04T08:13:44;9.30;99.90
11538;DHT22;50159;49.426;11.182;2022-11-04T08:16:15;9.30;99.90
11538;DHT22;50159;49.426;11.182;2022-11-04T08:18:44;9.30;99.90
11538;DHT22;50159;49.426;11.182;2022-11-04T08:21:12;9.20;99.90
11538;DHT22;50159;49.426;11.182;2022-11-04T08:23:40;9.20;99.90
11538;DHT22;50159;49.426;11.182;2022-11-04T08:26:11;9.20;99.90
11538;DHT22;50159;49.426;11.182;2022-11-04T08:28:42;9.20;99.90
11538;DHT22;50159;49.426;11.182;2022-11-04T08:31:14;9.20;99.90
11538;DHT22;50159;49.426;11.182;2022-11-04T08:33:44;9.20;99.90
11538;DHT22;50159;49.426;11.182;2022-11-04T08:36:25;9.20;99.90
11538;DHT22;50159;49.426;11.182;2022-11-04T08:38:54;9.20;99.90
11538;DHT22;50159;49.426;11.182;2022-11-04T08:41:26;9.20;99.90
11538;DHT22;50159;49.426;11.182;2022-11-04T08:43:55;9.20;99.90
11538;DHT22;50159;49.426;11.182;2022-11-04T08:46:34;9.20;99.90
11538;DHT22;50159;49.426;11.182;2022-11-04T08:49:03;9.30;99.90
11538;DHT22;50159;49.426;11.182;2022-11-04T08:51:39;9.30;99.90
11538;DHT22;50159;49.426;11.182;2022-11-04T08:54:09;9.30;99.90
11538;DHT22;50159;49.426;11.182;2022-11-04T08:56:38;9.30;99.90
11538;DHT22;50159;49.426;11.182;2022-11-04T08:59:05;9.30;99.90
11538;DHT22;50159;49.426;11.182;2022-11-04T09:01:35;9.40;99.90
11538;DHT22;50159;49.426;11.182;2022-11-04T09:04:03;9.30;99.90
11538;DHT22;50159;49.426;11.182;2022-11-04T09:06:36;9.40;99.90
11538;DHT22;50159;49.426;11.182;2022-11-04T09:09:07;9.40;99.90
11538;DHT22;50159;49.426;11.182;2022-11-04T09:11:39;9.40;99.90
11538;DHT22;50159;49.426;11.182;2022-11-04T09:14:08;9.40;99.90
11538;DHT22;50159;49.426;11.182;2022-11-04T09:16:37;9.40;99.90
11538;DHT22;50159;49.426;11.182;2022-11-04T09:19:05;9.30;99.90
11538;DHT22;50159;49.426;11.182;2022-11-04T09:21:32;9.30;99.90
11538;DHT22;50159;49.426;11.182;2022-11-04T09:23:59;9.30;99.90
11538;DHT22;50159;49.426;11.182;2022-11-04T09:26:26;9.30;99.90
11538;DHT22;50159;49.426;11.182;2022-11-04T09:28:55;9.30;99.90
11538;DHT22;50159;49.426;11.182;2022-11-04T09:31:24;9.40;99.90
11538;DHT22;50159;49.426;11.182;2022-11-04T09:33:54;9.40;99.90
11538;DHT22;50159;49.426;11.182;2022-11-04T09:36:21;9.40;99.90
11538;DHT22;50159;49.426;11.182;2022-11-04T09:38:49;9.30;99.90
11538;DHT22;50159;49.426;11.182;2022-11-04T09:47:29;9.30;99.90
11538;DHT22;50159;49.426;11.182;2022-11-04T09:49:59;9.30;99.90
11538;DHT22;50159;49.426;11.182;2022-11-04T09:52:32;9.30;99.90
11538;DHT22;50159;49.426;11.182;2022-11-04T09:57:53;9.30;99.90
11538;DHT22;50159;49.426;11.182;2022-11-04T10:00:21;9.40;99.90
11538;DHT22;50159;49.426;11.182;2022-11-04T10:11:43;9.50;99.90
11538;DHT22;50159;49.426;11.182;2022-11-04T10:14:28;9.50;99.90
11538;DHT22;50159;49.426;11.182;2022-11-04T10:20:27;9.70;99.90
11538;DHT22;50159;49.426;11.182;2022-11-04T10:22:58;9.80;99.90
11538;DHT22;50159;49.426;11.182;2022-11-04T10:25:42;9.80;99.90
11538;DHT22;50159;49.426;11.182;2022-11-04T10:28:19;9.90;99.90
11538;DHT22;50159;49.426;11.182;2022-11-04T10:30:51;9.90;99.90
11538;DHT22;50159;49.426;11.182;2022-11-04T10:33:36;10.00;99.90
11538;DHT22;50159;49.426;11.182;2022-11-04T10:36:08;10.10;99.90
11538;DHT22;50159;49.426;11.182;2022-11-04T10:44:02;10.30;99.90
11538;DHT22;50159;49.426;11.182;2022-11-04T10:49:47;10.40;99.90
11538;DHT22;50159;49.426;11.182;2022-11-04T10:52:39;10.40;99.90
11538;DHT22;50159;49.426;11.182;2022-11-04T10:55:24;10.40;99.90
11538;DHT22;50159;49.426;11.182;2022-11-04T10:58:23;10.50;99.90
11538;DHT22;50159;49.426;11.182;2022-11-04T11:00:53;10.50;99.90
11538;DHT22;50159;49.426;11.182;2022-11-04T11:03:27;10.60;99.90
11538;DHT22;50159;49.426;11.182;2022-11-04T11:06:09;10.60;99.90
11538;DHT22;50159;49.426;11.182;2022-11-04T11:08:37;10.60;99.90
11538;DHT22;50159;49.426;11.182;2022-11-04T11:11:05;10.60;99.90
11538;DHT22;50159;49.426;11.182;2022-11-04T11:13:36;10.60;99.90
11538;DHT22;50159;49.426;11.182;2022-11-04T11:16:26;10.60;99.90
11538;DHT22;50159;49.426;11.182;2022-11-04T11:19:15;10.60;99.90
11538;DHT22;50159;49.426;11.182;2022-11-04T11:21:45;10.60;99.90
11538;DHT22;50159;49.426;11.182;2022-11-04T11:24:25;10.60;99.90
11538;DHT22;50159;49.426;11.182;2022-11-04T11:26:59;10.70;99.90
11538;DHT22;50159;49.426;11.182;2022-11-04T11:29:30;10.80;99.90
11538;DHT22;50159;49.426;11.182;2022-11-04T11:32:33;10.90;99.90
11538;DHT22;50159;49.426;11.182;2022-11-04T11:35:02;10.90;99.90
11538;DHT22;50159;49.426;11.182;2022-11-04T11:37:38;11.00;99.90
11538;DHT22;50159;49.426;11.182;2022-11-04T11:40:11;11.00;99.90
11538;DHT22;50159;49.426;11.182;2022-11-04T11:42:50;10.90;99.90
11538;DHT22;50159;49.426;11.182;2022-11-04T11:45:19;11.00;99.90
11538;DHT22;50159;49.426;11.182;2022-11-04T11:47:48;11.10;99.90
11538;DHT22;50159;49.426;11.182;2022-11-04T11:50:23;11.00;99.90
11538;DHT22;50159;49.426;11.182;2022-11-04T11:53:13;11.10;99.90
11538;DHT22;50159;49.426;11.182;2022-11-04T11:56:07;11.10;99.90
11538;DHT22;50159;49.426;11.182;2022-11-04T11:58:52;11.10;99.90
11538;DHT22;50159;49.426;11.182;2022-11-04T12:05:02;11.30;99.90
11538;DHT22;50159;49.426;11.182;2022-11-04T12:11:42;11.40;99.90
11538;DHT22;50159;49.426;11.182;2022-11-04T12:14:21;11.40;99.90
11538;DHT22;50159;49.426;11.182;2022-11-04T12:17:38;11.40;99.90
11538;DHT22;50159;49.426;11.182;2022-11-04T12:20:24;11.50;99.90
11538;DHT22;50159;49.426;11.182;2022-11-04T12:26:00;11.40;99.90
11538;DHT22;50159;49.426;11.182;2022-11-04T12:29:10;11.30;99.90
11538;DHT22;50159;49.426;11.182;2022-11-04T12:41:07;11.10;99.90
11538;DHT22;50159;49.426;11.182;2022-11-04T12:52:28;11.20;99.90
11538;DHT22;50159;49.426;11.182;2022-11-04T12:55:34;11.20;99.90
11538;DHT22;50159;49.426;11.182;2022-11-04T12:58:32;11.20;99.90
11538;DHT22;50159;49.426;11.182;2022-11-04T13:01:14;11.10;99.90
11538;DHT22;50159;49.426;11.182;2022-11-04T13:03:55;11.10;99.90
11538;DHT22;50159;49.426;11.182;2022-11-04T13:06:47;11.10;99.90
11538;DHT22;50159;49.426;11.182;2022-11-04T13:12:15;11.00;99.90
11538;DHT22;50159;49.426;11.182;2022-11-04T13:14:54;11.00;99.90
11538;DHT22;50159;49.426;11.182;2022-11-04T13:17:29;11.00;99.90
11538;DHT22;50159;49.426;11.182;2022-11-04T13:22:38;11.10;99.90
11538;DHT22;50159;49.426;11.182;2022-11-04T13:27:56;11.10;99.90
11538;DHT22;50159;49.426;11.182;2022-11-04T13:30:38;11.10;99.90
11538;DHT22;50159;49.426;11.182;2022-11-04T13:36:32;11.10;99.90
11538;DHT22;50159;49.426;11.182;2022-11-04T13:39:17;11.10;99.90
11538;DHT22;50159;49.426;11.182;2022-11-04T13:45:08;11.10;99.90
11538;DHT22;50159;49.426;11.182;2022-11-04T13:47:50;11.00;99.90
11538;DHT22;50159;49.426;11.182;2022-11-04T13:50:35;11.10;99.90
11538;DHT22;50159;49.426;11.182;2022-11-04T13:53:07;11.00;99.90
11538;DHT22;50159;49.426;11.182;2022-11-04T13:55:48;11.00;99.90
11538;DHT22;50159;49.426;11.182;2022-11-04T13:58:22;10.90;99.90
11538;DHT22;50159;49.426;11.182;2022-11-04T14:01:11;10.90;99.90
11538;DHT22;50159;49.426;11.182;2022-11-04T14:03:53;10.90;99.90
11538;DHT22;50159;49.426;11.182;2022-11-04T14:06:53;10.90;99.90
11538;DHT22;50159;49.426;11.182;2022-11-04T14:14:48;10.90;99.90
11538;DHT22;50159;49.426;11.182;2022-11-04T14:22:46;10.80;99.90
11538;DHT22;50159;49.426;11.182;2022-11-04T14:25:26;10.80;99.90
11538;DHT22;50159;49.426;11.182;2022-11-04T14:27:59;10.80;99.90
11538;DHT22;50159;49.426;11.182;2022-11-04T14:33:06;10.80;99.90
11538;DHT22;50159;49.426;11.182;2022-11-04T14:35:44;10.80;99.90
11538;DHT22;50159;49.426;11.182;2022-11-04T14:38:40;10.70;99.90
11538;DHT22;50159;49.426;11.182;2022-11-04T14:47:00;10.70;99.90
11538;DHT22;50159;49.426;11.182;2022-11-04T14:49:45;10.60;99.90
11538;DHT22;50159;49.426;11.182;2022-11-04T14:52:20;10.60;99.90
11538;DHT22;50159;49.426;11.182;2022-11-04T14:54:55;10.60;99.90
11538;DHT22;50159;49.426;11.182;2022-11-04T14:57:29;10.60;99.90
11538;DHT22;50159;49.426;11.182;2022-11-04T15:06:07;10.50;99.90
11538;DHT22;50159;49.426;11.182;2022-11-04T15:11:10;10.40;99.90
11538;DHT22;50159;49.426;11.182;2022-11-04T15:16:25;10.40;99.90
11538;DHT22;50159;49.426;11.182;2022-11-04T15:18:57;10.30;99.90
11538;DHT22;50159;49.426;11.182;2022-11-04T15:21:25;10.30;99.90
11538;DHT22;50159;49.426;11.182;2022-11-04T15:23:53;10.20;99.90
11538;DHT22;50159;49.426;11.182;2022-11-04T15:26:29;10.20;99.90
11538;DHT22;50159;49.426;11.182;2022-11-04T15:29:00;10.10;99.90
11538;DHT22;50159;49.426;11.182;2022-11-04T15:31:34;10.10;99.90
11538;DHT22;50159;49.426;11.182;2022-11-04T15:34:04;10.10;99.90
11538;DHT22;50159;49.426;11.182;2022-11-04T15:36:41;10.10;99.90
11538;DHT22;50159;49.426;11.182;2022-11-04T15:41:51;10.00;99.90
11538;DHT22;50159;49.426;11.182;2022-11-04T15:44:44;10.00;99.90
11538;DHT22;50159;49.426;11.182;2022-11-04T15:49:44;9.80;99.90
11538;DHT22;50159;49.426;11.182;2022-11-04T15:55:18;9.80;99.90
11538;DHT22;50159;49.426;11.182;2022-11-04T15:57:48;9.70;99.90
11538;DHT22;50159;49.426;11.182;2022-11-04T16:02:49;9.60;99.90
11538;DHT22;50159;49.426;11.182;2022-11-04T16:07:47;9.50;99.90
11538;DHT22;50159;49.426;11.182;2022-11-04T16:10:26;9.50;99.90
11538;DHT22;50159;49.426;11.182;2022-11-04T16:13:22;9.50;99.90
11538;DHT22;50159;49.426;11.182;2022-11-04T16:16:04;9.40;99.90
11538;DHT22;50159;49.426;11.182;2022-11-04T16:18:56;9.40;99.90
11538;DHT22;50159;49.426;11.182;2022-11-04T16:21:30;9.30;99.90
11538;DHT22;50159;49.426;11.182;2022-11-04T16:24:14;9.30;99.90
11538;DHT22;50159;49.426;11.182;2022-11-04T16:26:47;9.30;99.90
11538;DHT22;50159;49.426;11.182;2022-11-04T16:29:29;9.20;99.90
11538;DHT22;50159;49.426;11.182;2022-11-04T16:32:17;9.20;99.90
11538;DHT22;50159;49.426;11.182;2022-11-04T16:34:51;9.20;99.90
11538;DHT22;50159;49.426;11.182;2022-11-04T16:37:21;9.10;99.90
11538;DHT22;50159;49.426;11.182;2022-11-04T16:39:48;9.10;99.90
11538;DHT22;50159;49.426;11.182;2022-11-04T16:42:15;9.10;99.90
11538;DHT22;50159;49.426;11.182;2022-11-04T16:44:47;9.10;99.90
11538;DHT22;50159;49.426;11.182;2022-11-04T16:47:20;9.00;99.90
11538;DHT22;50159;49.426;11.182;2022-11-04T16:49:47;9.00;99.90
11538;DHT22;50159;49.426;11.182;2022-11-04T16:52:21;8.90;99.90
11538;DHT22;50159;49.426;11.182;2022-11-04T16:54:50;8.90;99.90
11538;DHT22;50159;49.426;11.182;2022-11-04T16:57:22;8.90;99.90
11538;DHT22;50159;49.426;11.182;2022-11-04T16:59:50;8.90;99.90
11538;DHT22;50159;49.426;11.182;2022-11-04T17:02:26;8.90;99.90
11538;DHT22;50159;49.426;11.182;2022-11-04T17:04:57;8.80;99.90
11538;DHT22;50159;49.426;11.182;2022-11-04T17:07:24;8.80;99.90
11538;DHT22;50159;49.426;11.182;2022-11-04T17:12:42;8.80;99.90
11538;DHT22;50159;49.426;11.182;2022-11-04T17:15:10;8.70;99.90
11538;DHT22;50159;49.426;11.182;2022-11-04T17:17:37;8.70;99.90
11538;DHT22;50159;49.426;11.182;2022-11-04T17:20:05;8.60;99.90
11538;DHT22;50159;49.426;11.182;2022-11-04T17:22:33;8.70;99.90
11538;DHT22;50159;49.426;11.182;2022-11-04T17:25:03;8.60;99.90
11538;DHT22;50159;49.426;11.182;2022-11-04T17:27:31;8.60;99.90
11538;DHT22;50159;49.426;11.182;2022-11-04T17:29:58;8.60;99.90
11538;DHT22;50159;49.426;11.182;2022-11-04T17:32:24;8.60;99.90
11538;DHT22;50159;49.426;11.182;2022-11-04T17:34:51;8.50;99.90
11538;DHT22;50159;49.426;11.182;2022-11-04T17:37:18;8.60;99.90
11538;DHT22;50159;49.426;11.182;2022-11-04T17:39:44;8.50;99.90
11538;DHT22;50159;49.426;11.182;2022-11-04T17:42:11;8.60;99.90
11538;DHT22;50159;49.426;11.182;2022-11-04T17:44:56;8.60;99.90
11538;DHT22;50159;49.426;11.182;2022-11-04T17:47:23;8.60;99.90
11538;DHT22;50159;49.426;11.182;2022-11-04T17:49:50;8.60;99.90
11538;DHT22;50159;49.426;11.182;2022-11-04T17:52:17;8.60;99.90
11538;DHT22;50159;49.426;11.182;2022-11-04T17:54:44;8.60;99.90
11538;DHT22;50159;49.426;11.182;2022-11-04T17:57:10;8.60;99.90
11538;DHT22;50159;49.426;11.182;2022-11-04T17:59:37;8.60;99.90
11538;DHT22;50159;49.426;11.182;2022-11-04T18:02:04;8.60;99.90
11538;DHT22;50159;49.426;11.182;2022-11-04T18:04:31;8.60;99.90
11538;DHT22;50159;49.426;11.182;2022-11-04T18:06:58;8.60;99.90
11538;DHT22;50159;49.426;11.182;2022-11-04T18:09:29;8.60;99.90
11538;DHT22;50159;49.426;11.182;2022-11-04T18:11:58;9.20;99.90
11538;DHT22;50159;49.426;11.182;2022-11-04T18:14:43;8.70;99.90
11538;DHT22;50159;49.426;11.182;2022-11-04T18:17:10;8.60;99.90
11538;DHT22;50159;49.426;11.182;2022-11-04T18:19:36;8.60;99.90
11538;DHT22;50159;49.426;11.182;2022-11-04T18:22:03;8.60;99.90
11538;DHT22;50159;49.426;11.182;2022-11-04T18:24:30;8.60;99.90
11538;DHT22;50159;49.426;11.182;2022-11-04T18:26:57;8.60;99.90
11538;DHT22;50159;49.426;11.182;2022-11-04T18:29:27;8.60;99.90
11538;DHT22;50159;49.426;11.182;2022-11-04T18:31:54;8.50;99.90
11538;DHT22;50159;49.426;11.182;2022-11-04T18:34:20;8.50;99.90